PWSweather.com
Personal Weather Stations
Station Observations
KNCGREEN1
Sw Greensboro, Greensboro, NC 27407

Sw GreensboroGreensboro, NC 27407

Lat: 36.04, Lon: -79.87

Elevation: 870

Station Type: Davis

http://www.weathertrek.com

Latest ConditionsUpdated 7:55:08 PM EDT Tuesday, May 3, 2016
Currently Today's Max Today's Min Today's Average
Temperature 66.8°F19.3°C 76.8°F24.9°C 62.9°F17.2°C 67.1°F19.5°C
Dew Point 62.8°F17.1°C 67.0°F19.4°C 60.4°F15.8°C 62.8°F17.1°C
Winds Calm Calm 4.0 mph S6.4 kmh S - 0.1 mph 0.2 kmh
Wind Gusts -- 7.0 mph11.3 kmh - -
Humidity 87% 95% 57% 87%
Pressure 29.65 in1004.1 mb 29.81 in1009.5 mb 29.62 in1003.0 mb -
Hour Temp Dew Point Humidity Winds Wind Gusts Pressure Precip Precip Rate Daily Precip Total
07:55 PM 66.8°F19.3°C 62.8°F17.1°C 87% Calm Calm -- 29.65 in1004.1 mb 0.00 in0.0 mm 0.00 in0.0 mm 1.31 in33.3 mm
07:50 PM 67.1°F19.5°C 63.4°F17.4°C 88% Calm Calm -- 29.65 in1004.1 mb 0.00 in0.0 mm 0.00 in0.0 mm 1.31 in33.3 mm
07:45 PM 67.1°F19.5°C 63.8°F17.7°C 89% Calm Calm -- 29.64 in1003.7 mb 0.00 in0.0 mm 0.00 in0.0 mm 1.31 in33.3 mm
07:40 PM 67.1°F19.5°C 63.4°F17.4°C 88% Calm Calm -- 29.64 in1003.7 mb 0.00 in0.0 mm 0.00 in0.0 mm 1.31 in33.3 mm
07:35 PM 67.1°F19.5°C 63.4°F17.4°C 88% Calm Calm -- 29.64 in1003.7 mb 0.00 in0.0 mm 0.00 in0.0 mm 1.31 in33.3 mm
07:30 PM 67.3°F19.6°C 63.6°F17.6°C 88% Calm Calm -- 29.62 in1003.0 mb 0.00 in0.0 mm 0.00 in0.0 mm 1.31 in33.3 mm
07:25 PM 67.3°F19.6°C 63.3°F17.4°C 87% Calm Calm -- 29.62 in1003.0 mb 0.00 in0.0 mm 0.00 in0.0 mm 1.31 in33.3 mm
07:20 PM 67.4°F19.7°C 63.4°F17.4°C 87% Calm Calm -- 29.62 in1003.0 mb 0.00 in0.0 mm 0.00 in0.0 mm 1.31 in33.3 mm
07:15 PM 67.6°F19.8°C 63.6°F17.6°C 87% Calm Calm -- 29.63 in1003.4 mb 0.00 in0.0 mm 0.00 in0.0 mm 1.31 in33.3 mm
07:10 PM 67.6°F19.8°C 63.3°F17.4°C 86% Calm Calm -- 29.63 in1003.4 mb 0.00 in0.0 mm 0.00 in0.0 mm 1.31 in33.3 mm
07:05 PM 67.8°F19.9°C 63.1°F17.3°C 85% Calm Calm -- 29.63 in1003.4 mb 0.00 in0.0 mm 0.00 in0.0 mm 1.31 in33.3 mm
07:00 PM 67.9°F19.9°C 63.2°F17.3°C 85% Calm Calm -- 29.63 in1003.4 mb 0.00 in0.0 mm 0.00 in0.0 mm 1.31 in33.3 mm
06:55 PM 68.3°F20.2°C 63.3°F17.4°C 84% Calm Calm -- 29.63 in1003.4 mb 0.00 in0.0 mm 0.00 in0.0 mm 1.31 in33.3 mm
06:50 PM 68.4°F20.2°C 63.4°F17.4°C 84% Calm Calm -- 29.63 in1003.4 mb 0.00 in0.0 mm 0.00 in0.0 mm 1.31 in33.3 mm
06:45 PM 68.6°F20.3°C 63.2°F17.3°C 83% Calm Calm -- 29.62 in1003.0 mb 0.00 in0.0 mm 0.00 in0.0 mm 1.31 in33.3 mm
06:40 PM 68.8°F20.4°C 63.1°F17.3°C 82% Calm Calm -- 29.62 in1003.0 mb 0.00 in0.0 mm 0.00 in0.0 mm 1.31 in33.3 mm
06:35 PM 69.1°F20.6°C 63.0°F17.2°C 81% Calm Calm -- 29.62 in1003.0 mb 0.00 in0.0 mm 0.00 in0.0 mm 1.31 in33.3 mm
06:30 PM 69.4°F20.8°C 63.0°F17.2°C 80% Calm Calm -- 29.63 in1003.4 mb 0.00 in0.0 mm 0.00 in0.0 mm 1.31 in33.3 mm
06:25 PM 69.9°F21.1°C 63.1°F17.3°C 79% Calm Calm -- 29.63 in1003.4 mb 0.00 in0.0 mm 0.00 in0.0 mm 1.31 in33.3 mm
06:20 PM 70.1°F21.2°C 62.9°F17.2°C 78% Calm Calm -- 29.63 in1003.4 mb 0.00 in0.0 mm 0.00 in0.0 mm 1.31 in33.3 mm
06:15 PM 69.8°F21.0°C 62.6°F17.0°C 78% Calm Calm 1.0 mph1.6 kmh 29.63 in1003.4 mb 0.00 in0.0 mm 0.00 in0.0 mm 1.31 in33.3 mm
06:10 PM 69.3°F20.7°C 63.2°F17.3°C 81% Calm Calm 1.0 mph1.6 kmh 29.63 in1003.4 mb 0.00 in0.0 mm 0.00 in0.0 mm 1.31 in33.3 mm
06:05 PM 69.3°F20.7°C 63.2°F17.3°C 81% Calm Calm 1.0 mph1.6 kmh 29.63 in1003.4 mb 0.00 in0.0 mm 0.00 in0.0 mm 1.31 in33.3 mm
06:00 PM 68.9°F20.5°C 63.2°F17.3°C 82% Calm Calm 1.0 mph1.6 kmh 29.63 in1003.4 mb 0.00 in0.0 mm 0.00 in0.0 mm 1.31 in33.3 mm
05:55 PM 68.6°F20.3°C 63.6°F17.6°C 84% Calm Calm 1.0 mph1.6 kmh 29.62 in1003.0 mb 0.00 in0.0 mm 0.00 in0.0 mm 1.31 in33.3 mm
05:50 PM 68.1°F20.1°C 63.8°F17.7°C 86% Calm Calm 1.0 mph1.6 kmh 29.62 in1003.0 mb 0.00 in0.0 mm 0.00 in0.0 mm 1.31 in33.3 mm
05:45 PM 67.6°F19.8°C 63.6°F17.6°C 87% Calm Calm 1.0 mph1.6 kmh 29.62 in1003.0 mb 0.00 in0.0 mm 0.00 in0.0 mm 1.31 in33.3 mm
05:40 PM 66.8°F19.3°C 62.8°F17.1°C 87% Calm Calm -- 29.62 in1003.0 mb 0.00 in0.0 mm 0.00 in0.0 mm 1.31 in33.3 mm
05:35 PM 66.3°F19.1°C 62.0°F16.7°C 86% Calm Calm -- 29.62 in1003.0 mb 0.00 in0.0 mm 0.00 in0.0 mm 1.31 in33.3 mm
05:30 PM 66.4°F19.1°C 62.1°F16.7°C 86% Calm Calm -- 29.63 in1003.4 mb 0.00 in0.0 mm 0.00 in0.0 mm 1.31 in33.3 mm
05:25 PM 66.4°F19.1°C 61.8°F16.6°C 85% Calm Calm -- 29.63 in1003.4 mb 0.00 in0.0 mm 0.00 in0.0 mm 1.31 in33.3 mm
05:20 PM 66.6°F19.2°C 62.0°F16.7°C 85% Calm Calm -- 29.63 in1003.4 mb 0.00 in0.0 mm 0.00 in0.0 mm 1.31 in33.3 mm
05:15 PM 66.6°F19.2°C 61.6°F16.4°C 84% Calm Calm -- 29.63 in1003.4 mb 0.18 in4.6 mm 0.00 in0.0 mm 1.31 in33.3 mm
05:10 PM 66.9°F19.4°C 61.9°F16.6°C 84% Calm Calm -- 29.63 in1003.4 mb 0.18 in4.6 mm 0.00 in0.0 mm 1.31 in33.3 mm
05:05 PM 67.1°F19.5°C 62.5°F16.9°C 85% Calm Calm -- 29.63 in1003.4 mb 0.18 in4.6 mm 0.00 in0.0 mm 1.31 in33.3 mm
05:00 PM 67.3°F19.6°C 62.6°F17.0°C 85% Calm Calm 1.0 mph1.6 kmh 29.63 in1003.4 mb 0.20 in5.1 mm 0.00 in0.0 mm 1.31 in33.3 mm
04:55 PM 67.3°F19.6°C 63.0°F17.2°C 86% Calm Calm 1.0 mph1.6 kmh 29.64 in1003.7 mb 0.20 in5.1 mm 0.00 in0.0 mm 1.31 in33.3 mm
04:50 PM 67.1°F19.5°C 63.1°F17.3°C 87% Calm Calm 1.0 mph1.6 kmh 29.64 in1003.7 mb 0.20 in5.1 mm 0.00 in0.0 mm 1.31 in33.3 mm
04:45 PM 66.8°F19.3°C 62.5°F16.9°C 86% Calm Calm -- 29.63 in1003.4 mb 0.20 in5.1 mm 0.00 in0.0 mm 1.31 in33.3 mm
04:40 PM 66.8°F19.3°C 62.5°F16.9°C 86% Calm Calm -- 29.63 in1003.4 mb 0.20 in5.1 mm 0.00 in0.0 mm 1.31 in33.3 mm
04:35 PM 66.9°F19.4°C 62.9°F17.2°C 87% Calm Calm -- 29.63 in1003.4 mb 0.20 in5.1 mm 0.00 in0.0 mm 1.31 in33.3 mm
04:30 PM 67.1°F19.5°C 63.4°F17.4°C 88% Calm Calm 2.0 mph3.2 kmh 29.65 in1004.1 mb 0.20 in5.1 mm 0.00 in0.0 mm 1.31 in33.3 mm
04:25 PM 66.4°F19.1°C 62.1°F16.7°C 86% Calm Calm 2.0 mph3.2 kmh 29.65 in1004.1 mb 0.20 in5.1 mm 0.00 in0.0 mm 1.31 in33.3 mm
04:20 PM 66.9°F19.4°C 61.9°F16.6°C 84% Calm Calm 2.0 mph3.2 kmh 29.65 in1004.1 mb 0.20 in5.1 mm 0.06 in1.5 mm 1.31 in33.3 mm
04:10 PM 68.9°F20.5°C 62.1°F16.7°C 79% 1.0 mph W1.6 kmh W 7.0 mph11.3 kmh 29.67 in1004.7 mb 0.19 in4.8 mm 0.96 in24.4 mm 1.30 in33.0 mm
04:05 PM 71.5°F21.9°C 62.8°F17.1°C 74% Calm Calm 7.0 mph11.3 kmh 29.67 in1004.7 mb 0.11 in2.8 mm 1.08 in27.4 mm 1.22 in31.0 mm
04:00 PM 74.9°F23.8°C 63.6°F17.6°C 68% 4.0 mph S6.4 kmh S 7.0 mph11.3 kmh 29.67 in1004.7 mb 0.02 in0.5 mm 0.02 in0.5 mm 1.13 in28.7 mm
03:55 PM 75.8°F24.3°C 61.4°F16.3°C 61% Calm Calm 1.0 mph1.6 kmh 29.64 in1003.7 mb 0.00 in0.0 mm 0.00 in0.0 mm 1.11 in28.2 mm
03:50 PM 76.3°F24.6°C 61.9°F16.6°C 61% Calm Calm 1.0 mph1.6 kmh 29.64 in1003.7 mb 0.00 in0.0 mm 0.00 in0.0 mm 1.11 in28.2 mm
03:45 PM 76.5°F24.7°C 61.6°F16.4°C 60% Calm Calm 2.0 mph3.2 kmh 29.65 in1004.1 mb 0.00 in0.0 mm 0.00 in0.0 mm 1.11 in28.2 mm
03:40 PM 76.7°F24.8°C 63.2°F17.3°C 63% Calm Calm 2.0 mph3.2 kmh 29.65 in1004.1 mb 0.00 in0.0 mm 0.00 in0.0 mm 1.11 in28.2 mm
03:35 PM 76.7°F24.8°C 62.7°F17.1°C 62% Calm Calm -- 29.65 in1004.1 mb 0.00 in0.0 mm 0.00 in0.0 mm 1.11 in28.2 mm
03:30 PM 76.8°F24.9°C 63.3°F17.4°C 63% Calm Calm 2.0 mph3.2 kmh 29.65 in1004.1 mb 0.00 in0.0 mm 0.00 in0.0 mm 1.11 in28.2 mm
03:25 PM 76.8°F24.9°C 61.4°F16.3°C 59% Calm Calm 2.0 mph3.2 kmh 29.65 in1004.1 mb 0.00 in0.0 mm 0.00 in0.0 mm 1.11 in28.2 mm
03:20 PM 76.8°F24.9°C 60.4°F15.8°C 57% Calm Calm 1.0 mph1.6 kmh 29.65 in1004.1 mb 0.00 in0.0 mm 0.00 in0.0 mm 1.11 in28.2 mm
03:15 PM 76.8°F24.9°C 60.9°F16.1°C 58% Calm Calm 2.0 mph3.2 kmh 29.66 in1004.4 mb 0.00 in0.0 mm 0.00 in0.0 mm 1.11 in28.2 mm
03:10 PM 76.8°F24.9°C 61.9°F16.6°C 60% Calm Calm 2.0 mph3.2 kmh 29.66 in1004.4 mb 0.00 in0.0 mm 0.00 in0.0 mm 1.11 in28.2 mm
03:05 PM 76.7°F24.8°C 61.3°F16.3°C 59% Calm Calm 2.0 mph3.2 kmh 29.66 in1004.4 mb 0.00 in0.0 mm 0.00 in0.0 mm 1.11 in28.2 mm
03:00 PM 76.3°F24.6°C 61.4°F16.3°C 60% Calm Calm 1.0 mph1.6 kmh 29.66 in1004.4 mb 0.00 in0.0 mm 0.00 in0.0 mm 1.11 in28.2 mm
02:55 PM 76.3°F24.6°C 63.2°F17.3°C 64% Calm Calm 1.0 mph1.6 kmh 29.67 in1004.7 mb 0.00 in0.0 mm 0.00 in0.0 mm 1.11 in28.2 mm
02:50 PM 76.3°F24.6°C 62.3°F16.8°C 62% Calm Calm 1.0 mph1.6 kmh 29.67 in1004.7 mb 0.00 in0.0 mm 0.00 in0.0 mm 1.11 in28.2 mm
02:45 PM 76.5°F24.7°C 62.5°F16.9°C 62% Calm Calm 1.0 mph1.6 kmh 29.67 in1004.7 mb 0.00 in0.0 mm 0.00 in0.0 mm 1.11 in28.2 mm
02:40 PM 76.3°F24.6°C 62.8°F17.1°C 63% Calm Calm 1.0 mph1.6 kmh 29.67 in1004.7 mb 0.00 in0.0 mm 0.00 in0.0 mm 1.11 in28.2 mm
02:35 PM 76.1°F24.5°C 61.7°F16.5°C 61% Calm Calm 1.0 mph1.6 kmh 29.67 in1004.7 mb 0.00 in0.0 mm 0.00 in0.0 mm 1.11 in28.2 mm
02:30 PM 76.0°F24.4°C 62.1°F16.7°C 62% Calm Calm 3.0 mph4.8 kmh 29.68 in1005.1 mb 0.00 in0.0 mm 0.00 in0.0 mm 1.11 in28.2 mm
02:25 PM 76.1°F24.5°C 64.4°F18.0°C 67% Calm Calm 3.0 mph4.8 kmh 29.68 in1005.1 mb 0.00 in0.0 mm 0.00 in0.0 mm 1.11 in28.2 mm
02:20 PM 75.8°F24.3°C 63.2°F17.3°C 65% 1.0 mph NW1.6 kmh NW 2.0 mph3.2 kmh 29.68 in1005.1 mb 0.00 in0.0 mm 0.00 in0.0 mm 1.11 in28.2 mm
02:15 PM 75.4°F24.1°C 62.8°F17.1°C 65% Calm Calm 2.0 mph3.2 kmh 29.69 in1005.4 mb 0.00 in0.0 mm 0.00 in0.0 mm 1.11 in28.2 mm
02:10 PM 75.3°F24.1°C 64.0°F17.8°C 68% Calm Calm 2.0 mph3.2 kmh 29.69 in1005.4 mb 0.00 in0.0 mm 0.00 in0.0 mm 1.11 in28.2 mm
02:05 PM 74.9°F23.8°C 63.6°F17.6°C 68% Calm Calm 2.0 mph3.2 kmh 29.69 in1005.4 mb 0.00 in0.0 mm 0.00 in0.0 mm 1.11 in28.2 mm
02:00 PM 74.9°F23.8°C 62.4°F16.9°C 65% 1.0 mph NW1.6 kmh NW 3.0 mph4.8 kmh 29.69 in1005.4 mb 0.00 in0.0 mm 0.00 in0.0 mm 1.11 in28.2 mm
01:55 PM 75.4°F24.1°C 63.3°F17.4°C 66% Calm Calm 3.0 mph4.8 kmh 29.69 in1005.4 mb 0.00 in0.0 mm 0.00 in0.0 mm 1.11 in28.2 mm
01:50 PM 76.0°F24.4°C 63.4°F17.4°C 65% Calm Calm 3.0 mph4.8 kmh 29.69 in1005.4 mb 0.00 in0.0 mm 0.00 in0.0 mm 1.11 in28.2 mm
01:45 PM 75.8°F24.3°C 63.2°F17.3°C 65% 1.0 mph NNW1.6 kmh NNW 2.0 mph3.2 kmh 29.70 in1005.8 mb 0.00 in0.0 mm 0.00 in0.0 mm 1.11 in28.2 mm
01:40 PM 75.6°F24.2°C 63.9°F17.7°C 67% Calm Calm 2.0 mph3.2 kmh 29.70 in1005.8 mb 0.00 in0.0 mm 0.00 in0.0 mm 1.11 in28.2 mm
01:35 PM 75.3°F24.1°C 64.4°F18.0°C 69% Calm Calm -- 29.70 in1005.8 mb 0.00 in0.0 mm 0.00 in0.0 mm 1.11 in28.2 mm
01:30 PM 75.1°F23.9°C 64.7°F18.2°C 70% Calm Calm 2.0 mph3.2 kmh 29.70 in1005.8 mb 0.00 in0.0 mm 0.00 in0.0 mm 1.11 in28.2 mm
01:25 PM 74.6°F23.7°C 64.2°F17.9°C 70% Calm Calm 2.0 mph3.2 kmh 29.70 in1005.8 mb 0.00 in0.0 mm 0.00 in0.0 mm 1.11 in28.2 mm
01:20 PM 74.2°F23.4°C 64.6°F18.1°C 72% Calm Calm -- 29.70 in1005.8 mb 0.00 in0.0 mm 0.00 in0.0 mm 1.11 in28.2 mm
01:15 PM 74.0°F23.3°C 64.4°F18.0°C 72% Calm Calm 4.0 mph6.4 kmh 29.71 in1006.1 mb 0.00 in0.0 mm 0.00 in0.0 mm 1.11 in28.2 mm
01:10 PM 73.7°F23.2°C 63.3°F17.4°C 70% Calm Calm 4.0 mph6.4 kmh 29.71 in1006.1 mb 0.00 in0.0 mm 0.00 in0.0 mm 1.11 in28.2 mm
01:05 PM 73.3°F22.9°C 64.5°F18.1°C 74% Calm Calm -- 29.71 in1006.1 mb 0.00 in0.0 mm 0.00 in0.0 mm 1.11 in28.2 mm
01:00 PM 73.0°F22.8°C 63.1°F17.3°C 71% Calm Calm 1.0 mph1.6 kmh 29.71 in1006.1 mb 0.00 in0.0 mm 0.00 in0.0 mm 1.11 in28.2 mm
12:55 PM 73.0°F22.8°C 64.6°F18.1°C 75% Calm Calm -- 29.72 in1006.4 mb 0.00 in0.0 mm 0.00 in0.0 mm 1.11 in28.2 mm
12:50 PM 72.7°F22.6°C 64.3°F17.9°C 75% Calm Calm -- 29.72 in1006.4 mb 0.00 in0.0 mm 0.00 in0.0 mm 1.11 in28.2 mm
12:45 PM 72.8°F22.7°C 64.8°F18.2°C 76% Calm Calm 1.0 mph1.6 kmh 29.72 in1006.4 mb 0.00 in0.0 mm 0.00 in0.0 mm 1.11 in28.2 mm
12:40 PM 72.8°F22.7°C 65.2°F18.4°C 77% Calm Calm 1.0 mph1.6 kmh 29.72 in1006.4 mb 0.00 in0.0 mm 0.00 in0.0 mm 1.11 in28.2 mm
12:35 PM 72.5°F22.5°C 64.5°F18.1°C 76% Calm Calm 1.0 mph1.6 kmh 29.72 in1006.4 mb 0.00 in0.0 mm 0.00 in0.0 mm 1.11 in28.2 mm
12:30 PM 72.5°F22.5°C 64.9°F18.3°C 77% Calm Calm 1.0 mph1.6 kmh 29.72 in1006.4 mb 0.00 in0.0 mm 0.00 in0.0 mm 1.11 in28.2 mm
12:25 PM 72.3°F22.4°C 65.8°F18.8°C 80% Calm Calm 1.0 mph1.6 kmh 29.73 in1006.8 mb 0.00 in0.0 mm 0.00 in0.0 mm 1.11 in28.2 mm
12:20 PM 71.5°F21.9°C 65.7°F18.7°C 82% Calm Calm -- 29.73 in1006.8 mb 0.00 in0.0 mm 0.00 in0.0 mm 1.11 in28.2 mm
12:15 PM 70.9°F21.6°C 64.8°F18.2°C 81% Calm Calm 1.0 mph1.6 kmh 29.73 in1006.8 mb 0.00 in0.0 mm 0.00 in0.0 mm 1.11 in28.2 mm
12:10 PM 70.4°F21.3°C 64.3°F17.9°C 81% Calm Calm 1.0 mph1.6 kmh 29.73 in1006.8 mb 0.00 in0.0 mm 0.00 in0.0 mm 1.11 in28.2 mm
12:05 PM 70.3°F21.3°C 64.6°F18.1°C 82% Calm Calm -- 29.73 in1006.8 mb 0.00 in0.0 mm 0.00 in0.0 mm 1.11 in28.2 mm
12:00 PM 70.3°F21.3°C 64.6°F18.1°C 82% Calm Calm 6.0 mph9.7 kmh 29.73 in1006.8 mb 0.00 in0.0 mm 0.00 in0.0 mm 1.11 in28.2 mm
11:55 AM 70.4°F21.3°C 65.0°F18.3°C 83% Calm Calm 6.0 mph9.7 kmh 29.73 in1006.8 mb 0.00 in0.0 mm 0.00 in0.0 mm 1.11 in28.2 mm
11:50 AM 70.4°F21.3°C 65.0°F18.3°C 83% Calm Calm 6.0 mph9.7 kmh 29.73 in1006.8 mb 0.00 in0.0 mm 0.00 in0.0 mm 1.11 in28.2 mm
11:45 AM 70.6°F21.4°C 65.9°F18.8°C 85% Calm Calm 1.0 mph1.6 kmh 29.74 in1007.1 mb 0.00 in0.0 mm 0.00 in0.0 mm 1.11 in28.2 mm
11:40 AM 70.4°F21.3°C 66.0°F18.9°C 86% Calm Calm 1.0 mph1.6 kmh 29.74 in1007.1 mb 0.00 in0.0 mm 0.00 in0.0 mm 1.11 in28.2 mm
11:35 AM 70.1°F21.2°C 66.4°F19.1°C 88% 1.0 mph NE1.6 kmh NE 1.0 mph1.6 kmh 29.74 in1007.1 mb 0.00 in0.0 mm 0.00 in0.0 mm 1.11 in28.2 mm
11:30 AM 69.9°F21.1°C 66.8°F19.3°C 90% 1.0 mph NE1.6 kmh NE 2.0 mph3.2 kmh 29.75 in1007.5 mb 0.00 in0.0 mm 0.00 in0.0 mm 1.11 in28.2 mm
11:25 AM 69.4°F20.8°C 66.7°F19.3°C 91% Calm Calm 1.0 mph1.6 kmh 29.75 in1007.5 mb 0.00 in0.0 mm 0.00 in0.0 mm 1.11 in28.2 mm
11:20 AM 68.9°F20.5°C 66.5°F19.2°C 92% Calm Calm 1.0 mph1.6 kmh 29.75 in1007.5 mb 0.00 in0.0 mm 0.00 in0.0 mm 1.11 in28.2 mm
11:15 AM 68.6°F20.3°C 66.5°F19.2°C 93% Calm Calm 1.0 mph1.6 kmh 29.75 in1007.5 mb 0.00 in0.0 mm 0.00 in0.0 mm 1.11 in28.2 mm
11:10 AM 68.4°F20.2°C 66.3°F19.1°C 93% Calm Calm 1.0 mph1.6 kmh 29.75 in1007.5 mb 0.00 in0.0 mm 0.00 in0.0 mm 1.11 in28.2 mm
11:05 AM 68.6°F20.3°C 66.8°F19.3°C 94% Calm Calm 1.0 mph1.6 kmh 29.75 in1007.5 mb 0.00 in0.0 mm 0.00 in0.0 mm 1.11 in28.2 mm
11:00 AM 68.8°F20.4°C 67.0°F19.4°C 94% Calm Calm 3.0 mph4.8 kmh 29.75 in1007.5 mb 0.00 in0.0 mm 0.00 in0.0 mm 1.11 in28.2 mm
10:55 AM 68.6°F20.3°C 66.8°F19.3°C 94% Calm Calm 3.0 mph4.8 kmh 29.74 in1007.1 mb 0.00 in0.0 mm 0.00 in0.0 mm 1.11 in28.2 mm
10:50 AM 68.4°F20.2°C 66.9°F19.4°C 95% Calm Calm -- 29.74 in1007.1 mb 0.00 in0.0 mm 0.00 in0.0 mm 1.11 in28.2 mm
10:45 AM 68.1°F20.1°C 66.6°F19.2°C 95% Calm Calm 1.0 mph1.6 kmh 29.73 in1006.8 mb 0.01 in0.3 mm 0.00 in0.0 mm 1.11 in28.2 mm
10:40 AM 67.8°F19.9°C 66.3°F19.1°C 95% Calm Calm 1.0 mph1.6 kmh 29.73 in1006.8 mb 0.01 in0.3 mm 0.00 in0.0 mm 1.11 in28.2 mm
10:35 AM 67.1°F19.5°C 65.6°F18.7°C 95% Calm Calm -- 29.73 in1006.8 mb 0.01 in0.3 mm 0.00 in0.0 mm 1.11 in28.2 mm
10:30 AM 67.1°F19.5°C 65.6°F18.7°C 95% Calm Calm -- 29.72 in1006.4 mb 0.02 in0.5 mm 0.00 in0.0 mm 1.11 in28.2 mm
10:25 AM 66.9°F19.4°C 65.4°F18.6°C 95% Calm Calm -- 29.72 in1006.4 mb 0.02 in0.5 mm 0.00 in0.0 mm 1.11 in28.2 mm
10:20 AM 66.6°F19.2°C 65.1°F18.4°C 95% Calm Calm -- 29.72 in1006.4 mb 0.02 in0.5 mm 0.00 in0.0 mm 1.11 in28.2 mm
10:15 AM 66.4°F19.1°C 64.9°F18.3°C 95% Calm Calm 1.0 mph1.6 kmh 29.73 in1006.8 mb 0.02 in0.5 mm 0.00 in0.0 mm 1.11 in28.2 mm
10:10 AM 66.3°F19.1°C 64.8°F18.2°C 95% Calm Calm 1.0 mph1.6 kmh 29.73 in1006.8 mb 0.02 in0.5 mm 0.00 in0.0 mm 1.11 in28.2 mm
10:05 AM 66.3°F19.1°C 64.8°F18.2°C 95% 1.0 mph NE1.6 kmh NE 1.0 mph1.6 kmh 29.73 in1006.8 mb 0.02 in0.5 mm 0.00 in0.0 mm 1.11 in28.2 mm
10:00 AM 66.3°F19.1°C 64.8°F18.2°C 95% Calm Calm 1.0 mph1.6 kmh 29.73 in1006.8 mb 0.02 in0.5 mm 0.00 in0.0 mm 1.11 in28.2 mm
09:55 AM 65.8°F18.8°C 64.3°F17.9°C 95% 1.0 mph NE1.6 kmh NE 1.0 mph1.6 kmh 29.74 in1007.1 mb 0.02 in0.5 mm 0.00 in0.0 mm 1.11 in28.2 mm
09:50 AM 65.5°F18.6°C 64.0°F17.8°C 95% Calm Calm -- 29.74 in1007.1 mb 0.02 in0.5 mm 0.00 in0.0 mm 1.11 in28.2 mm
09:45 AM 65.3°F18.5°C 63.8°F17.7°C 95% Calm Calm -- 29.74 in1007.1 mb 0.02 in0.5 mm 0.12 in3.0 mm 1.11 in28.2 mm
09:40 AM 65.0°F18.3°C 63.5°F17.5°C 95% Calm Calm -- 29.74 in1007.1 mb 0.01 in0.3 mm 0.00 in0.0 mm 1.10 in27.9 mm
09:35 AM 64.7°F18.2°C 63.2°F17.3°C 95% Calm Calm -- 29.74 in1007.1 mb 0.01 in0.3 mm 0.00 in0.0 mm 1.10 in27.9 mm
09:30 AM 64.5°F18.1°C 63.0°F17.2°C 95% Calm Calm -- 29.74 in1007.1 mb 0.01 in0.3 mm 0.12 in3.0 mm 1.10 in27.9 mm
09:25 AM 64.5°F18.1°C 63.0°F17.2°C 95% Calm Calm -- 29.74 in1007.1 mb 0.00 in0.0 mm 0.00 in0.0 mm 1.09 in27.7 mm
09:20 AM 64.3°F17.9°C 62.8°F17.1°C 95% Calm Calm -- 29.74 in1007.1 mb 0.00 in0.0 mm 0.00 in0.0 mm 1.09 in27.7 mm
09:15 AM 64.2°F17.9°C 62.7°F17.1°C 95% Calm Calm -- 29.75 in1007.5 mb 0.00 in0.0 mm 0.00 in0.0 mm 1.09 in27.7 mm
09:10 AM 64.0°F17.8°C 62.5°F16.9°C 95% Calm Calm -- 29.75 in1007.5 mb 0.00 in0.0 mm 0.00 in0.0 mm 1.09 in27.7 mm
09:05 AM 63.9°F17.7°C 62.4°F16.9°C 95% Calm Calm -- 29.75 in1007.5 mb 0.00 in0.0 mm 0.00 in0.0 mm 1.09 in27.7 mm
09:00 AM 63.7°F17.6°C 62.2°F16.8°C 95% Calm Calm -- 29.75 in1007.5 mb 0.01 in0.3 mm 0.00 in0.0 mm 1.09 in27.7 mm
08:55 AM 63.7°F17.6°C 62.2°F16.8°C 95% Calm Calm -- 29.75 in1007.5 mb 0.01 in0.3 mm 0.00 in0.0 mm 1.09 in27.7 mm
08:50 AM 63.7°F17.6°C 62.2°F16.8°C 95% Calm Calm -- 29.75 in1007.5 mb 0.01 in0.3 mm 0.00 in0.0 mm 1.09 in27.7 mm
08:45 AM 63.7°F17.6°C 62.2°F16.8°C 95% Calm Calm 1.0 mph1.6 kmh 29.75 in1007.5 mb 0.02 in0.5 mm 0.00 in0.0 mm 1.09 in27.7 mm
08:40 AM 63.7°F17.6°C 62.2°F16.8°C 95% Calm Calm 1.0 mph1.6 kmh 29.75 in1007.5 mb 0.02 in0.5 mm 0.00 in0.0 mm 1.09 in27.7 mm
08:35 AM 63.9°F17.7°C 62.4°F16.9°C 95% Calm Calm -- 29.75 in1007.5 mb 0.02 in0.5 mm 0.00 in0.0 mm 1.09 in27.7 mm
08:30 AM 64.0°F17.8°C 62.5°F16.9°C 95% Calm Calm 2.0 mph3.2 kmh 29.74 in1007.1 mb 0.03 in0.8 mm 0.00 in0.0 mm 1.09 in27.7 mm
08:25 AM 64.3°F17.9°C 62.8°F17.1°C 95% Calm Calm 1.0 mph1.6 kmh 29.74 in1007.1 mb 0.03 in0.8 mm 0.00 in0.0 mm 1.09 in27.7 mm
08:20 AM 64.5°F18.1°C 63.0°F17.2°C 95% Calm Calm 1.0 mph1.6 kmh 29.74 in1007.1 mb 0.03 in0.8 mm 0.00 in0.0 mm 1.09 in27.7 mm
08:15 AM 64.5°F18.1°C 63.0°F17.2°C 95% Calm Calm 1.0 mph1.6 kmh 29.74 in1007.1 mb 0.03 in0.8 mm 0.00 in0.0 mm 1.09 in27.7 mm
08:10 AM 64.5°F18.1°C 63.0°F17.2°C 95% Calm Calm 1.0 mph1.6 kmh 29.74 in1007.1 mb 0.03 in0.8 mm 0.00 in0.0 mm 1.09 in27.7 mm
08:05 AM 64.5°F18.1°C 63.0°F17.2°C 95% Calm Calm -- 29.74 in1007.1 mb 0.03 in0.8 mm 0.00 in0.0 mm 1.09 in27.7 mm
08:00 AM 64.3°F17.9°C 62.8°F17.1°C 95% Calm Calm 1.0 mph1.6 kmh 29.74 in1007.1 mb 0.03 in0.8 mm 0.01 in0.3 mm 1.09 in27.7 mm
07:55 AM 64.2°F17.9°C 62.7°F17.1°C 95% Calm Calm -- 29.74 in1007.1 mb 0.02 in0.5 mm 0.00 in0.0 mm 1.08 in27.4 mm
07:50 AM 64.2°F17.9°C 62.7°F17.1°C 95% Calm Calm -- 29.74 in1007.1 mb 0.02 in0.5 mm 0.00 in0.0 mm 1.08 in27.4 mm
07:45 AM 64.0°F17.8°C 62.5°F16.9°C 95% Calm Calm 1.0 mph1.6 kmh 29.73 in1006.8 mb 0.05 in1.3 mm 0.00 in0.0 mm 1.08 in27.4 mm
07:40 AM 64.0°F17.8°C 62.5°F16.9°C 95% Calm Calm -- 29.73 in1006.8 mb 0.05 in1.3 mm 0.12 in3.0 mm 1.08 in27.4 mm
07:35 AM 63.9°F17.7°C 62.4°F16.9°C 95% Calm Calm -- 29.73 in1006.8 mb 0.04 in1.0 mm 0.00 in0.0 mm 1.07 in27.2 mm
07:30 AM 63.9°F17.7°C 62.4°F16.9°C 95% Calm Calm -- 29.74 in1007.1 mb 0.09 in2.3 mm 0.00 in0.0 mm 1.07 in27.2 mm
07:25 AM 63.9°F17.7°C 62.4°F16.9°C 95% Calm Calm -- 29.74 in1007.1 mb 0.09 in2.3 mm 0.12 in3.0 mm 1.07 in27.2 mm
07:20 AM 63.9°F17.7°C 62.4°F16.9°C 95% Calm Calm -- 29.74 in1007.1 mb 0.08 in2.0 mm 0.00 in0.0 mm 1.06 in26.9 mm
07:15 AM 63.9°F17.7°C 62.4°F16.9°C 95% Calm Calm 1.0 mph1.6 kmh 29.73 in1006.8 mb 0.11 in2.8 mm 0.00 in0.0 mm 1.06 in26.9 mm
07:10 AM 63.9°F17.7°C 62.4°F16.9°C 95% Calm Calm 1.0 mph1.6 kmh 29.73 in1006.8 mb 0.11 in2.8 mm 0.00 in0.0 mm 1.06 in26.9 mm
07:05 AM 63.7°F17.6°C 62.2°F16.8°C 95% Calm Calm -- 29.73 in1006.8 mb 0.11 in2.8 mm 0.00 in0.0 mm 1.06 in26.9 mm
07:00 AM 63.7°F17.6°C 62.2°F16.8°C 95% Calm Calm -- 29.73 in1006.8 mb 0.14 in3.6 mm 0.00 in0.0 mm 1.06 in26.9 mm
06:55 AM 63.5°F17.5°C 62.1°F16.7°C 95% Calm Calm -- 29.73 in1006.8 mb 0.14 in3.6 mm 0.00 in0.0 mm 1.06 in26.9 mm
06:50 AM 63.5°F17.5°C 62.1°F16.7°C 95% Calm Calm -- 29.73 in1006.8 mb 0.14 in3.6 mm 0.00 in0.0 mm 1.06 in26.9 mm
06:45 AM 63.5°F17.5°C 62.1°F16.7°C 95% Calm Calm -- 29.73 in1006.8 mb 0.14 in3.6 mm 0.00 in0.0 mm 1.06 in26.9 mm
06:40 AM 63.5°F17.5°C 62.1°F16.7°C 95% Calm Calm -- 29.73 in1006.8 mb 0.14 in3.6 mm 0.12 in3.0 mm 1.06 in26.9 mm
06:35 AM 63.5°F17.5°C 62.1°F16.7°C 95% Calm Calm -- 29.73 in1006.8 mb 0.13 in3.3 mm 0.00 in0.0 mm 1.05 in26.7 mm
06:30 AM 63.5°F17.5°C 62.1°F16.7°C 95% Calm Calm 1.0 mph1.6 kmh 29.73 in1006.8 mb 0.13 in3.3 mm 0.24 in6.1 mm 1.05 in26.7 mm
06:25 AM 63.5°F17.5°C 62.1°F16.7°C 95% Calm Calm 1.0 mph1.6 kmh 29.73 in1006.8 mb 0.11 in2.8 mm 0.24 in6.1 mm 1.03 in26.2 mm
06:20 AM 63.4°F17.4°C 62.0°F16.7°C 95% Calm Calm -- 29.73 in1006.8 mb 0.09 in2.3 mm 0.00 in0.0 mm 1.01 in25.7 mm
06:15 AM 63.4°F17.4°C 62.0°F16.7°C 95% Calm Calm -- 29.73 in1006.8 mb 0.10 in2.5 mm 0.24 in6.1 mm 1.01 in25.7 mm
06:10 AM 63.4°F17.4°C 62.0°F16.7°C 95% Calm Calm -- 29.73 in1006.8 mb 0.08 in2.0 mm 0.00 in0.0 mm 0.99 in25.1 mm
06:05 AM 63.4°F17.4°C 62.0°F16.7°C 95% Calm Calm -- 29.73 in1006.8 mb 0.08 in2.0 mm 0.00 in0.0 mm 0.99 in25.1 mm
06:00 AM 63.4°F17.4°C 62.0°F16.7°C 95% Calm Calm -- 29.73 in1006.8 mb 0.08 in2.0 mm 0.01 in0.3 mm 0.99 in25.1 mm
05:55 AM 63.4°F17.4°C 62.0°F16.7°C 95% Calm Calm -- 29.73 in1006.8 mb 0.07 in1.8 mm 0.00 in0.0 mm 0.98 in24.9 mm
05:50 AM 63.4°F17.4°C 62.0°F16.7°C 95% Calm Calm -- 29.73 in1006.8 mb 0.07 in1.8 mm 0.00 in0.0 mm 0.98 in24.9 mm
05:45 AM 63.4°F17.4°C 62.0°F16.7°C 95% Calm Calm -- 29.73 in1006.8 mb 0.07 in1.8 mm 0.00 in0.0 mm 0.98 in24.9 mm
05:40 AM 63.4°F17.4°C 62.0°F16.7°C 95% Calm Calm -- 29.73 in1006.8 mb 0.07 in1.8 mm 0.00 in0.0 mm 0.98 in24.9 mm
05:35 AM 63.2°F17.3°C 61.8°F16.6°C 95% Calm Calm -- 29.73 in1006.8 mb 0.07 in1.8 mm 0.00 in0.0 mm 0.98 in24.9 mm
05:30 AM 63.2°F17.3°C 61.8°F16.6°C 95% Calm Calm -- 29.73 in1006.8 mb 0.09 in2.3 mm 0.00 in0.0 mm 0.98 in24.9 mm
05:25 AM 63.2°F17.3°C 61.8°F16.6°C 95% Calm Calm -- 29.73 in1006.8 mb 0.09 in2.3 mm 0.12 in3.0 mm 0.98 in24.9 mm
05:20 AM 63.2°F17.3°C 61.8°F16.6°C 95% Calm Calm -- 29.73 in1006.8 mb 0.08 in2.0 mm 0.00 in0.0 mm 0.97 in24.6 mm
05:15 AM 63.2°F17.3°C 61.8°F16.6°C 95% Calm Calm -- 29.74 in1007.1 mb 0.12 in3.0 mm 0.12 in3.0 mm 0.97 in24.6 mm
05:10 AM 63.2°F17.3°C 61.8°F16.6°C 95% Calm Calm -- 29.74 in1007.1 mb 0.11 in2.8 mm 0.12 in3.0 mm 0.96 in24.4 mm
05:05 AM 63.2°F17.3°C 61.8°F16.6°C 95% Calm Calm -- 29.74 in1007.1 mb 0.10 in2.5 mm 0.00 in0.0 mm 0.95 in24.1 mm
05:00 AM 63.2°F17.3°C 61.8°F16.6°C 95% Calm Calm 1.0 mph1.6 kmh 29.74 in1007.1 mb 0.11 in2.8 mm 0.01 in0.3 mm 0.95 in24.1 mm
04:55 AM 63.2°F17.3°C 61.8°F16.6°C 95% Calm Calm 1.0 mph1.6 kmh 29.74 in1007.1 mb 0.10 in2.5 mm 0.12 in3.0 mm 0.94 in23.9 mm
04:50 AM 63.2°F17.3°C 61.8°F16.6°C 95% Calm Calm -- 29.74 in1007.1 mb 0.09 in2.3 mm 0.00 in0.0 mm 0.93 in23.6 mm
04:45 AM 63.2°F17.3°C 61.8°F16.6°C 95% Calm Calm -- 29.75 in1007.5 mb 0.11 in2.8 mm 0.12 in3.0 mm 0.93 in23.6 mm
04:40 AM 63.2°F17.3°C 61.8°F16.6°C 95% Calm Calm -- 29.75 in1007.5 mb 0.10 in2.5 mm 0.00 in0.0 mm 0.92 in23.4 mm
04:35 AM 63.2°F17.3°C 61.8°F16.6°C 95% Calm Calm -- 29.75 in1007.5 mb 0.10 in2.5 mm 0.00 in0.0 mm 0.92 in23.4 mm
04:30 AM 63.2°F17.3°C 61.8°F16.6°C 95% Calm Calm 1.0 mph1.6 kmh 29.75 in1007.5 mb 0.16 in4.1 mm 0.12 in3.0 mm 0.92 in23.4 mm
04:25 AM 63.2°F17.3°C 61.8°F16.6°C 95% Calm Calm 1.0 mph1.6 kmh 29.75 in1007.5 mb 0.15 in3.8 mm 0.12 in3.0 mm 0.91 in23.1 mm
04:20 AM 63.2°F17.3°C 61.8°F16.6°C 95% Calm Calm -- 29.75 in1007.5 mb 0.14 in3.6 mm 0.00 in0.0 mm 0.90 in22.9 mm
04:15 AM 63.2°F17.3°C 61.8°F16.6°C 95% Calm Calm 1.0 mph1.6 kmh 29.75 in1007.5 mb 0.20 in5.1 mm 0.12 in3.0 mm 0.90 in22.9 mm
04:10 AM 63.2°F17.3°C 61.8°F16.6°C 95% Calm Calm 1.0 mph1.6 kmh 29.75 in1007.5 mb 0.19 in4.8 mm 0.12 in3.0 mm 0.89 in22.6 mm
04:05 AM 63.2°F17.3°C 61.8°F16.6°C 95% Calm Calm 1.0 mph1.6 kmh 29.75 in1007.5 mb 0.18 in4.6 mm 0.00 in0.0 mm 0.88 in22.4 mm
04:00 AM 63.2°F17.3°C 61.8°F16.6°C 95% Calm Calm 2.0 mph3.2 kmh 29.75 in1007.5 mb 0.20 in5.1 mm 0.01 in0.3 mm 0.88 in22.4 mm
03:55 AM 63.2°F17.3°C 61.8°F16.6°C 95% Calm Calm 2.0 mph3.2 kmh 29.75 in1007.5 mb 0.19 in4.8 mm 0.00 in0.0 mm 0.87 in22.1 mm
03:50 AM 63.1°F17.3°C 61.4°F16.3°C 94% Calm Calm 2.0 mph3.2 kmh 29.75 in1007.5 mb 0.19 in4.8 mm 0.00 in0.0 mm 0.87 in22.1 mm
03:45 AM 63.1°F17.3°C 61.4°F16.3°C 94% Calm Calm 3.0 mph4.8 kmh 29.75 in1007.5 mb 0.21 in5.3 mm 0.00 in0.0 mm 0.87 in22.1 mm
03:40 AM 63.1°F17.3°C 61.4°F16.3°C 94% Calm Calm 3.0 mph4.8 kmh 29.75 in1007.5 mb 0.21 in5.3 mm 0.12 in3.0 mm 0.87 in22.1 mm
03:35 AM 63.1°F17.3°C 61.4°F16.3°C 94% Calm Calm 3.0 mph4.8 kmh 29.75 in1007.5 mb 0.20 in5.1 mm 0.00 in0.0 mm 0.86 in21.8 mm
03:30 AM 63.1°F17.3°C 61.4°F16.3°C 94% Calm Calm 2.0 mph3.2 kmh 29.75 in1007.5 mb 0.20 in5.1 mm 0.12 in3.0 mm 0.86 in21.8 mm
03:25 AM 63.1°F17.3°C 61.4°F16.3°C 94% Calm Calm 1.0 mph1.6 kmh 29.75 in1007.5 mb 0.19 in4.8 mm 0.36 in9.1 mm 0.85 in21.6 mm
03:20 AM 63.1°F17.3°C 61.4°F16.3°C 94% Calm Calm -- 29.75 in1007.5 mb 0.16 in4.1 mm 0.00 in0.0 mm 0.82 in20.8 mm
03:15 AM 63.1°F17.3°C 61.4°F16.3°C 94% Calm Calm 1.0 mph1.6 kmh 29.75 in1007.5 mb 0.20 in5.1 mm 0.36 in9.1 mm 0.82 in20.8 mm
03:10 AM 63.1°F17.3°C 61.4°F16.3°C 94% Calm Calm 1.0 mph1.6 kmh 29.75 in1007.5 mb 0.17 in4.3 mm 0.36 in9.1 mm 0.79 in20.1 mm
03:05 AM 63.1°F17.3°C 61.4°F16.3°C 94% Calm Calm 1.0 mph1.6 kmh 29.75 in1007.5 mb 0.14 in3.6 mm 0.00 in0.0 mm 0.76 in19.3 mm
03:00 AM 62.9°F17.2°C 61.2°F16.2°C 94% Calm Calm -- 29.75 in1007.5 mb 0.16 in4.1 mm 0.01 in0.3 mm 0.76 in19.3 mm
02:55 AM 62.9°F17.2°C 61.2°F16.2°C 94% Calm Calm -- 29.75 in1007.5 mb 0.15 in3.8 mm 0.24 in6.1 mm 0.75 in19.1 mm
02:50 AM 62.9°F17.2°C 61.2°F16.2°C 94% Calm Calm -- 29.75 in1007.5 mb 0.13 in3.3 mm 0.00 in0.0 mm 0.73 in18.5 mm
02:45 AM 62.9°F17.2°C 61.2°F16.2°C 94% Calm Calm -- 29.75 in1007.5 mb 0.16 in4.1 mm 0.12 in3.0 mm 0.73 in18.5 mm
02:40 AM 62.9°F17.2°C 61.2°F16.2°C 94% Calm Calm -- 29.75 in1007.5 mb 0.15 in3.8 mm 0.00 in0.0 mm 0.72 in18.3 mm
02:35 AM 62.9°F17.2°C 61.2°F16.2°C 94% Calm Calm -- 29.75 in1007.5 mb 0.15 in3.8 mm 0.00 in0.0 mm 0.72 in18.3 mm
02:30 AM 62.9°F17.2°C 61.2°F16.2°C 94% Calm Calm -- 29.76 in1007.8 mb 0.15 in3.8 mm 0.00 in0.0 mm 0.72 in18.3 mm
02:25 AM 62.9°F17.2°C 61.2°F16.2°C 94% Calm Calm -- 29.76 in1007.8 mb 0.15 in3.8 mm 0.12 in3.0 mm 0.72 in18.3 mm
02:20 AM 62.9°F17.2°C 61.2°F16.2°C 94% Calm Calm -- 29.76 in1007.8 mb 0.14 in3.6 mm 0.00 in0.0 mm 0.71 in18.0 mm
02:15 AM 62.9°F17.2°C 61.2°F16.2°C 94% Calm Calm -- 29.78 in1008.5 mb 0.18 in4.6 mm 0.12 in3.0 mm 0.71 in18.0 mm
02:10 AM 62.9°F17.2°C 61.2°F16.2°C 94% Calm Calm -- 29.78 in1008.5 mb 0.17 in4.3 mm 0.24 in6.1 mm 0.70 in17.8 mm
02:05 AM 63.1°F17.3°C 61.4°F16.3°C 94% Calm Calm -- 29.78 in1008.5 mb 0.15 in3.8 mm 0.24 in6.1 mm 0.68 in17.3 mm
02:00 AM 63.1°F17.3°C 61.4°F16.3°C 94% Calm Calm -- 29.78 in1008.5 mb 0.13 in3.3 mm 0.01 in0.3 mm 0.66 in16.8 mm
01:55 AM 63.1°F17.3°C 61.4°F16.3°C 94% Calm Calm -- 29.78 in1008.5 mb 0.12 in3.0 mm 0.12 in3.0 mm 0.65 in16.5 mm
01:50 AM 63.2°F17.3°C 61.5°F16.4°C 94% Calm Calm -- 29.78 in1008.5 mb 0.11 in2.8 mm 0.00 in0.0 mm 0.64 in16.3 mm
01:45 AM 63.2°F17.3°C 61.5°F16.4°C 94% Calm Calm -- 29.77 in1008.1 mb 0.14 in3.6 mm 0.12 in3.0 mm 0.64 in16.3 mm
01:40 AM 63.2°F17.3°C 61.5°F16.4°C 94% Calm Calm -- 29.77 in1008.1 mb 0.13 in3.3 mm 0.12 in3.0 mm 0.63 in16.0 mm
01:35 AM 63.2°F17.3°C 61.5°F16.4°C 94% Calm Calm -- 29.77 in1008.1 mb 0.12 in3.0 mm 0.00 in0.0 mm 0.62 in15.7 mm
01:30 AM 63.1°F17.3°C 61.4°F16.3°C 94% Calm Calm 1.0 mph1.6 kmh 29.78 in1008.5 mb 0.19 in4.8 mm 0.00 in0.0 mm 0.62 in15.7 mm
01:25 AM 63.2°F17.3°C 61.5°F16.4°C 94% Calm Calm 1.0 mph1.6 kmh 29.78 in1008.5 mb 0.19 in4.8 mm 0.00 in0.0 mm 0.62 in15.7 mm
01:20 AM 63.2°F17.3°C 61.2°F16.2°C 93% Calm Calm -- 29.78 in1008.5 mb 0.19 in4.8 mm 0.00 in0.0 mm 0.62 in15.7 mm
01:15 AM 63.4°F17.4°C 61.3°F16.3°C 93% Calm Calm -- 29.81 in1009.5 mb 0.21 in5.3 mm 0.12 in3.0 mm 0.62 in15.7 mm
01:10 AM 63.4°F17.4°C 61.3°F16.3°C 93% Calm Calm -- 29.81 in1009.5 mb 0.20 in5.1 mm 0.24 in6.1 mm 0.61 in15.5 mm
01:05 AM 63.4°F17.4°C 61.3°F16.3°C 93% Calm Calm -- 29.81 in1009.5 mb 0.18 in4.6 mm 0.00 in0.0 mm 0.59 in15.0 mm
01:00 AM 63.4°F17.4°C 61.3°F16.3°C 93% Calm Calm 1.0 mph1.6 kmh 29.81 in1009.5 mb 0.42 in10.7 mm 0.01 in0.3 mm 0.59 in15.0 mm
12:55 AM 63.4°F17.4°C 61.3°F16.3°C 93% Calm Calm 1.0 mph1.6 kmh 29.80 in1009.1 mb 0.41 in10.4 mm 0.00 in0.0 mm 0.58 in14.7 mm
12:50 AM 63.5°F17.5°C 61.4°F16.3°C 93% Calm Calm 1.0 mph1.6 kmh 29.80 in1009.1 mb 0.41 in10.4 mm 0.00 in0.0 mm 0.58 in14.7 mm
12:45 AM 63.5°F17.5°C 61.4°F16.3°C 93% Calm Calm 1.0 mph1.6 kmh 29.81 in1009.5 mb 0.50 in12.7 mm 0.12 in3.0 mm 0.58 in14.7 mm
12:40 AM 63.5°F17.5°C 61.4°F16.3°C 93% Calm Calm -- 29.81 in1009.5 mb 0.49 in12.4 mm 0.12 in3.0 mm 0.57 in14.5 mm
12:35 AM 63.7°F17.6°C 61.6°F16.4°C 93% Calm Calm -- 29.81 in1009.5 mb 0.48 in12.2 mm 0.36 in9.1 mm 0.56 in14.2 mm
12:30 AM 63.5°F17.5°C 61.4°F16.3°C 93% Calm Calm 1.0 mph1.6 kmh 29.81 in1009.5 mb 0.45 in11.4 mm 0.24 in6.1 mm 0.53 in13.5 mm
12:25 AM 63.5°F17.5°C 61.4°F16.3°C 93% Calm Calm 1.0 mph1.6 kmh 29.81 in1009.5 mb 0.43 in10.9 mm 0.36 in9.1 mm 0.51 in13.0 mm
12:20 AM 63.4°F17.4°C 61.0°F16.1°C 92% Calm Calm 1.0 mph1.6 kmh 29.81 in1009.5 mb 0.40 in10.2 mm 0.00 in0.0 mm 0.48 in12.2 mm
12:15 AM 63.4°F17.4°C 61.0°F16.1°C 92% Calm Calm 1.0 mph1.6 kmh 29.80 in1009.1 mb 0.44 in11.2 mm 0.12 in3.0 mm 0.48 in12.2 mm
12:10 AM 63.4°F17.4°C 61.0°F16.1°C 92% Calm Calm 1.0 mph1.6 kmh 29.80 in1009.1 mb 0.43 in10.9 mm 0.12 in3.0 mm 0.47 in11.9 mm
12:05 AM 63.4°F17.4°C 61.0°F16.1°C 92% Calm Calm 1.0 mph1.6 kmh 29.80 in1009.1 mb 0.42 in10.7 mm 0.00 in0.0 mm 0.46 in11.7 mm
12:00 AM 63.5°F17.5°C 61.1°F16.2°C 92% 2.0 mph NW3.2 kmh NW 2.0 mph3.2 kmh 29.80 in1009.1 mb 0.46 in11.7 mm 0.00 in0.0 mm 0.46 in11.7 mm